sensor_id;sensor_type;location;lat;lon;timestamp;temperature;humidity
42095;DHT22;27753;55.724;37.612;2023-02-01T00:00:17;1.30;99.90
42095;DHT22;27753;55.724;37.612;2023-02-01T00:02:43;1.30;99.90
42095;DHT22;27753;55.724;37.612;2023-02-01T00:05:09;1.30;99.90
42095;DHT22;27753;55.724;37.612;2023-02-01T00:07:36;1.30;99.90
42095;DHT22;27753;55.724;37.612;2023-02-01T00:10:03;1.30;99.90
42095;DHT22;27753;55.724;37.612;2023-02-01T00:12:30;1.30;99.90
42095;DHT22;27753;55.724;37.612;2023-02-01T00:14:56;1.40;99.90
42095;DHT22;27753;55.724;37.612;2023-02-01T00:17:22;1.40;99.90
42095;DHT22;27753;55.724;37.612;2023-02-01T00:19:48;1.40;99.90
42095;DHT22;27753;55.724;37.612;2023-02-01T00:22:13;1.40;99.90
42095;DHT22;27753;55.724;37.612;2023-02-01T00:24:39;1.40;99.90
42095;DHT22;27753;55.724;37.612;2023-02-01T00:27:05;1.50;99.90
42095;DHT22;27753;55.724;37.612;2023-02-01T00:29:31;1.50;99.90
42095;DHT22;27753;55.724;37.612;2023-02-01T00:31:57;1.50;99.90
42095;DHT22;27753;55.724;37.612;2023-02-01T00:34:23;1.40;99.90
42095;DHT22;27753;55.724;37.612;2023-02-01T00:36:49;1.50;99.90
42095;DHT22;27753;55.724;37.612;2023-02-01T00:39:16;1.50;99.90
42095;DHT22;27753;55.724;37.612;2023-02-01T00:41:42;1.50;99.90
42095;DHT22;27753;55.724;37.612;2023-02-01T00:44:08;1.50;99.90
42095;DHT22;27753;55.724;37.612;2023-02-01T00:46:34;1.40;99.90
42095;DHT22;27753;55.724;37.612;2023-02-01T00:48:59;1.30;99.90
42095;DHT22;27753;55.724;37.612;2023-02-01T00:51:29;1.30;99.90
42095;DHT22;27753;55.724;37.612;2023-02-01T00:53:55;1.20;99.90
42095;DHT22;27753;55.724;37.612;2023-02-01T00:56:21;1.30;99.90
42095;DHT22;27753;55.724;37.612;2023-02-01T00:58:47;1.20;99.90
42095;DHT22;27753;55.724;37.612;2023-02-01T01:01:23;1.20;99.90
42095;DHT22;27753;55.724;37.612;2023-02-01T01:03:58;1.30;99.90
42095;DHT22;27753;55.724;37.612;2023-02-01T01:06:26;1.20;99.90
42095;DHT22;27753;55.724;37.612;2023-02-01T01:08:54;1.30;99.90
42095;DHT22;27753;55.724;37.612;2023-02-01T01:11:23;1.40;99.90
42095;DHT22;27753;55.724;37.612;2023-02-01T01:13:51;1.40;99.90
42095;DHT22;27753;55.724;37.612;2023-02-01T01:16:18;1.40;99.90
42095;DHT22;27753;55.724;37.612;2023-02-01T01:18:45;1.50;99.90
42095;DHT22;27753;55.724;37.612;2023-02-01T01:21:12;1.40;99.90
42095;DHT22;27753;55.724;37.612;2023-02-01T01:23:38;1.40;99.90
42095;DHT22;27753;55.724;37.612;2023-02-01T01:26:08;1.50;99.90
42095;DHT22;27753;55.724;37.612;2023-02-01T01:28:35;1.40;99.90
42095;DHT22;27753;55.724;37.612;2023-02-01T01:31:01;1.40;99.90
42095;DHT22;27753;55.724;37.612;2023-02-01T01:33:27;1.40;99.90
42095;DHT22;27753;55.724;37.612;2023-02-01T01:35:53;1.50;99.90
42095;DHT22;27753;55.724;37.612;2023-02-01T01:38:18;1.50;99.90
42095;DHT22;27753;55.724;37.612;2023-02-01T01:40:46;1.50;99.90
42095;DHT22;27753;55.724;37.612;2023-02-01T01:43:16;1.50;99.90
42095;DHT22;27753;55.724;37.612;2023-02-01T01:45:42;1.50;99.90
42095;DHT22;27753;55.724;37.612;2023-02-01T01:48:12;1.50;99.90
42095;DHT22;27753;55.724;37.612;2023-02-01T01:50:43;1.50;99.90
42095;DHT22;27753;55.724;37.612;2023-02-01T01:53:12;1.60;99.90
42095;DHT22;27753;55.724;37.612;2023-02-01T01:55:43;1.60;99.90
42095;DHT22;27753;55.724;37.612;2023-02-01T01:58:16;1.60;99.90
42095;DHT22;27753;55.724;37.612;2023-02-01T02:00:44;1.70;99.90
42095;DHT22;27753;55.724;37.612;2023-02-01T02:03:22;1.70;99.90
42095;DHT22;27753;55.724;37.612;2023-02-01T02:05:50;1.60;99.90
42095;DHT22;27753;55.724;37.612;2023-02-01T02:08:17;1.60;99.90
42095;DHT22;27753;55.724;37.612;2023-02-01T02:10:47;1.60;99.90
42095;DHT22;27753;55.724;37.612;2023-02-01T02:19:32;1.60;99.90
42095;DHT22;27753;55.724;37.612;2023-02-01T02:28:03;1.70;99.90
42095;DHT22;27753;55.724;37.612;2023-02-01T02:36:13;1.70;99.90
42095;DHT22;27753;55.724;37.612;2023-02-01T02:38:52;1.60;99.90
42095;DHT22;27753;55.724;37.612;2023-02-01T02:50:23;1.60;99.90
42095;DHT22;27753;55.724;37.612;2023-02-01T02:53:15;1.60;99.90
42095;DHT22;27753;55.724;37.612;2023-02-01T02:56:03;1.60;99.90
42095;DHT22;27753;55.724;37.612;2023-02-01T02:58:48;1.60;99.90
42095;DHT22;27753;55.724;37.612;2023-02-01T03:01:33;1.60;99.90
42095;DHT22;27753;55.724;37.612;2023-02-01T03:04:17;1.70;99.90
42095;DHT22;27753;55.724;37.612;2023-02-01T03:06:46;1.70;99.90
42095;DHT22;27753;55.724;37.612;2023-02-01T03:09:31;1.80;99.90
42095;DHT22;27753;55.724;37.612;2023-02-01T03:12:10;1.80;99.90
42095;DHT22;27753;55.724;37.612;2023-02-01T03:15:03;1.80;99.90
42095;DHT22;27753;55.724;37.612;2023-02-01T03:17:35;1.80;99.90
42095;DHT22;27753;55.724;37.612;2023-02-01T03:20:04;1.80;99.90
42095;DHT22;27753;55.724;37.612;2023-02-01T03:22:31;1.80;99.90
42095;DHT22;27753;55.724;37.612;2023-02-01T03:25:14;1.80;99.90
42095;DHT22;27753;55.724;37.612;2023-02-01T03:27:48;1.90;99.90
42095;DHT22;27753;55.724;37.612;2023-02-01T03:30:24;1.90;99.90
42095;DHT22;27753;55.724;37.612;2023-02-01T03:32:55;1.90;99.90
42095;DHT22;27753;55.724;37.612;2023-02-01T03:41:09;1.80;99.90
42095;DHT22;27753;55.724;37.612;2023-02-01T03:43:54;1.80;99.90
42095;DHT22;27753;55.724;37.612;2023-02-01T03:46:34;1.80;99.90
42095;DHT22;27753;55.724;37.612;2023-02-01T03:49:06;1.80;99.90
42095;DHT22;27753;55.724;37.612;2023-02-01T03:51:36;1.80;99.90
42095;DHT22;27753;55.724;37.612;2023-02-01T03:54:06;1.90;99.90
42095;DHT22;27753;55.724;37.612;2023-02-01T03:56:34;1.90;99.90
42095;DHT22;27753;55.724;37.612;2023-02-01T03:59:02;1.80;99.90
42095;DHT22;27753;55.724;37.612;2023-02-01T04:01:29;1.80;99.90
42095;DHT22;27753;55.724;37.612;2023-02-01T04:03:56;1.80;99.90
42095;DHT22;27753;55.724;37.612;2023-02-01T04:06:22;1.80;99.90
42095;DHT22;27753;55.724;37.612;2023-02-01T04:08:48;1.70;99.90
42095;DHT22;27753;55.724;37.612;2023-02-01T04:11:13;1.70;99.90
42095;DHT22;27753;55.724;37.612;2023-02-01T04:13:39;1.80;99.90
42095;DHT22;27753;55.724;37.612;2023-02-01T04:16:05;1.80;99.90
42095;DHT22;27753;55.724;37.612;2023-02-01T04:18:31;1.80;99.90
42095;DHT22;27753;55.724;37.612;2023-02-01T04:20:57;1.70;99.90
42095;DHT22;27753;55.724;37.612;2023-02-01T04:23:23;1.70;99.90
42095;DHT22;27753;55.724;37.612;2023-02-01T04:25:48;1.70;99.90
42095;DHT22;27753;55.724;37.612;2023-02-01T04:28:14;1.70;99.90
42095;DHT22;27753;55.724;37.612;2023-02-01T04:30:40;1.80;99.90
42095;DHT22;27753;55.724;37.612;2023-02-01T04:33:06;1.70;99.90
42095;DHT22;27753;55.724;37.612;2023-02-01T04:35:32;1.60;99.90
42095;DHT22;27753;55.724;37.612;2023-02-01T04:37:57;1.70;99.90
42095;DHT22;27753;55.724;37.612;2023-02-01T04:40:24;1.70;99.90
42095;DHT22;27753;55.724;37.612;2023-02-01T04:42:50;1.70;99.90
42095;DHT22;27753;55.724;37.612;2023-02-01T04:45:16;1.70;99.90
42095;DHT22;27753;55.724;37.612;2023-02-01T04:47:42;1.70;99.90
42095;DHT22;27753;55.724;37.612;2023-02-01T04:50:08;1.70;99.90
42095;DHT22;27753;55.724;37.612;2023-02-01T04:52:36;1.80;99.90
42095;DHT22;27753;55.724;37.612;2023-02-01T04:55:02;1.80;99.90
42095;DHT22;27753;55.724;37.612;2023-02-01T04:57:28;1.80;99.90
42095;DHT22;27753;55.724;37.612;2023-02-01T04:59:54;1.80;99.90
42095;DHT22;27753;55.724;37.612;2023-02-01T05:02:20;1.90;99.90
42095;DHT22;27753;55.724;37.612;2023-02-01T05:04:46;1.90;99.90
42095;DHT22;27753;55.724;37.612;2023-02-01T05:07:12;2.00;99.90
42095;DHT22;27753;55.724;37.612;2023-02-01T05:09:37;1.90;99.90
42095;DHT22;27753;55.724;37.612;2023-02-01T05:12:03;1.90;99.90
42095;DHT22;27753;55.724;37.612;2023-02-01T05:14:48;1.90;99.90
42095;DHT22;27753;55.724;37.612;2023-02-01T05:17:14;1.90;99.90
42095;DHT22;27753;55.724;37.612;2023-02-01T05:19:40;1.90;99.90
42095;DHT22;27753;55.724;37.612;2023-02-01T05:22:06;1.90;99.90
42095;DHT22;27753;55.724;37.612;2023-02-01T05:24:31;1.80;99.90
42095;DHT22;27753;55.724;37.612;2023-02-01T05:26:57;1.70;99.90
42095;DHT22;27753;55.724;37.612;2023-02-01T05:29:23;1.70;99.90
42095;DHT22;27753;55.724;37.612;2023-02-01T05:31:49;1.60;99.90
42095;DHT22;27753;55.724;37.612;2023-02-01T05:34:15;1.70;99.90
42095;DHT22;27753;55.724;37.612;2023-02-01T05:36:41;1.60;99.90
42095;DHT22;27753;55.724;37.612;2023-02-01T05:39:07;1.60;99.90
42095;DHT22;27753;55.724;37.612;2023-02-01T05:41:33;1.60;99.90
42095;DHT22;27753;55.724;37.612;2023-02-01T05:43:59;1.60;99.90
42095;DHT22;27753;55.724;37.612;2023-02-01T05:46:24;1.60;99.90
42095;DHT22;27753;55.724;37.612;2023-02-01T05:48:50;1.50;99.90
42095;DHT22;27753;55.724;37.612;2023-02-01T05:51:16;1.60;99.90
42095;DHT22;27753;55.724;37.612;2023-02-01T05:53:42;1.60;99.90
42095;DHT22;27753;55.724;37.612;2023-02-01T05:56:08;1.50;99.90
42095;DHT22;27753;55.724;37.612;2023-02-01T05:58:33;1.40;99.90
42095;DHT22;27753;55.724;37.612;2023-02-01T06:01:00;1.40;99.90
42095;DHT22;27753;55.724;37.612;2023-02-01T06:03:26;1.50;99.90
42095;DHT22;27753;55.724;37.612;2023-02-01T06:05:53;1.50;99.90
42095;DHT22;27753;55.724;37.612;2023-02-01T06:08:19;1.40;99.90
42095;DHT22;27753;55.724;37.612;2023-02-01T06:10:44;1.40;99.90
42095;DHT22;27753;55.724;37.612;2023-02-01T06:13:10;1.40;99.90
42095;DHT22;27753;55.724;37.612;2023-02-01T06:15:36;1.40;99.90
42095;DHT22;27753;55.724;37.612;2023-02-01T06:18:03;1.50;99.90
42095;DHT22;27753;55.724;37.612;2023-02-01T06:20:29;1.60;99.90
42095;DHT22;27753;55.724;37.612;2023-02-01T06:22:54;1.60;99.90
42095;DHT22;27753;55.724;37.612;2023-02-01T06:25:20;1.50;99.90
42095;DHT22;27753;55.724;37.612;2023-02-01T06:27:47;1.40;99.90
42095;DHT22;27753;55.724;37.612;2023-02-01T06:30:14;1.30;99.90
42095;DHT22;27753;55.724;37.612;2023-02-01T06:32:40;1.30;99.90
42095;DHT22;27753;55.724;37.612;2023-02-01T06:35:10;1.30;99.90
42095;DHT22;27753;55.724;37.612;2023-02-01T06:37:41;1.20;99.90
42095;DHT22;27753;55.724;37.612;2023-02-01T06:40:07;1.20;99.90
42095;DHT22;27753;55.724;37.612;2023-02-01T06:42:34;1.10;99.90
42095;DHT22;27753;55.724;37.612;2023-02-01T06:45:00;1.10;99.90
42095;DHT22;27753;55.724;37.612;2023-02-01T06:47:25;1.20;99.90
42095;DHT22;27753;55.724;37.612;2023-02-01T06:49:51;1.20;99.90
42095;DHT22;27753;55.724;37.612;2023-02-01T06:52:17;1.20;99.90
42095;DHT22;27753;55.724;37.612;2023-02-01T06:54:43;1.20;99.90
42095;DHT22;27753;55.724;37.612;2023-02-01T06:57:09;1.20;99.90
42095;DHT22;27753;55.724;37.612;2023-02-01T06:59:34;1.20;99.90
42095;DHT22;27753;55.724;37.612;2023-02-01T07:02:00;1.20;99.90
42095;DHT22;27753;55.724;37.612;2023-02-01T07:04:26;1.20;99.90
42095;DHT22;27753;55.724;37.612;2023-02-01T07:06:52;1.20;99.90
42095;DHT22;27753;55.724;37.612;2023-02-01T07:09:17;1.20;99.90
42095;DHT22;27753;55.724;37.612;2023-02-01T07:11:43;1.20;99.90
42095;DHT22;27753;55.724;37.612;2023-02-01T07:14:10;1.20;99.90
42095;DHT22;27753;55.724;37.612;2023-02-01T07:16:36;1.30;99.90
42095;DHT22;27753;55.724;37.612;2023-02-01T07:19:03;1.30;99.90
42095;DHT22;27753;55.724;37.612;2023-02-01T07:21:29;1.30;99.90
42095;DHT22;27753;55.724;37.612;2023-02-01T07:23:55;1.30;99.90
42095;DHT22;27753;55.724;37.612;2023-02-01T07:26:21;1.30;99.90
42095;DHT22;27753;55.724;37.612;2023-02-01T07:28:47;1.20;99.90
42095;DHT22;27753;55.724;37.612;2023-02-01T07:31:16;1.20;99.90
42095;DHT22;27753;55.724;37.612;2023-02-01T07:33:44;1.20;99.90
42095;DHT22;27753;55.724;37.612;2023-02-01T07:36:15;1.30;99.90
42095;DHT22;27753;55.724;37.612;2023-02-01T07:38:41;1.30;99.90
42095;DHT22;27753;55.724;37.612;2023-02-01T07:41:07;1.30;99.90
42095;DHT22;27753;55.724;37.612;2023-02-01T07:43:34;1.30;99.90
42095;DHT22;27753;55.724;37.612;2023-02-01T07:46:01;1.30;99.90
42095;DHT22;27753;55.724;37.612;2023-02-01T07:48:27;1.20;99.90
42095;DHT22;27753;55.724;37.612;2023-02-01T07:50:58;1.30;99.90
42095;DHT22;27753;55.724;37.612;2023-02-01T07:53:24;1.30;99.90
42095;DHT22;27753;55.724;37.612;2023-02-01T07:55:50;1.20;99.90
42095;DHT22;27753;55.724;37.612;2023-02-01T07:58:17;1.30;99.90
42095;DHT22;27753;55.724;37.612;2023-02-01T08:00:43;1.20;99.90
42095;DHT22;27753;55.724;37.612;2023-02-01T08:03:27;1.20;99.90
42095;DHT22;27753;55.724;37.612;2023-02-01T08:05:56;1.20;99.90
42095;DHT22;27753;55.724;37.612;2023-02-01T08:08:22;1.20;99.90
42095;DHT22;27753;55.724;37.612;2023-02-01T08:10:48;1.20;99.90
42095;DHT22;27753;55.724;37.612;2023-02-01T08:13:14;1.20;99.90
42095;DHT22;27753;55.724;37.612;2023-02-01T08:15:40;1.30;99.90
42095;DHT22;27753;55.724;37.612;2023-02-01T08:18:06;1.40;99.90
42095;DHT22;27753;55.724;37.612;2023-02-01T08:20:33;1.50;99.90
42095;DHT22;27753;55.724;37.612;2023-02-01T08:23:00;1.50;99.90
42095;DHT22;27753;55.724;37.612;2023-02-01T08:25:26;1.70;99.90
42095;DHT22;27753;55.724;37.612;2023-02-01T08:27:53;1.70;99.90
42095;DHT22;27753;55.724;37.612;2023-02-01T08:30:20;1.70;99.90
42095;DHT22;27753;55.724;37.612;2023-02-01T08:32:46;1.80;99.90
42095;DHT22;27753;55.724;37.612;2023-02-01T08:35:11;1.80;99.90
42095;DHT22;27753;55.724;37.612;2023-02-01T08:37:37;1.80;99.90
42095;DHT22;27753;55.724;37.612;2023-02-01T08:40:04;1.90;99.90
42095;DHT22;27753;55.724;37.612;2023-02-01T08:42:31;1.90;99.90
42095;DHT22;27753;55.724;37.612;2023-02-01T08:45:15;1.90;99.90
42095;DHT22;27753;55.724;37.612;2023-02-01T08:47:44;2.00;99.90
42095;DHT22;27753;55.724;37.612;2023-02-01T08:50:10;2.10;99.90
42095;DHT22;27753;55.724;37.612;2023-02-01T08:52:36;2.10;99.90
42095;DHT22;27753;55.724;37.612;2023-02-01T08:55:06;2.10;99.90
42095;DHT22;27753;55.724;37.612;2023-02-01T08:57:33;2.20;99.90
42095;DHT22;27753;55.724;37.612;2023-02-01T08:59:58;2.20;99.90
42095;DHT22;27753;55.724;37.612;2023-02-01T09:02:26;2.40;99.90
42095;DHT22;27753;55.724;37.612;2023-02-01T09:04:52;2.40;99.90
42095;DHT22;27753;55.724;37.612;2023-02-01T09:07:18;2.30;99.90
42095;DHT22;27753;55.724;37.612;2023-02-01T09:09:44;2.10;99.90
42095;DHT22;27753;55.724;37.612;2023-02-01T09:12:10;2.00;99.90
42095;DHT22;27753;55.724;37.612;2023-02-01T09:14:36;1.90;99.90
42095;DHT22;27753;55.724;37.612;2023-02-01T09:17:03;1.80;99.90
42095;DHT22;27753;55.724;37.612;2023-02-01T09:19:31;1.80;99.90
42095;DHT22;27753;55.724;37.612;2023-02-01T09:21:57;1.90;99.90
42095;DHT22;27753;55.724;37.612;2023-02-01T09:24:23;2.00;99.90
42095;DHT22;27753;55.724;37.612;2023-02-01T09:26:53;1.90;99.90
42095;DHT22;27753;55.724;37.612;2023-02-01T09:29:19;2.00;99.90
42095;DHT22;27753;55.724;37.612;2023-02-01T09:31:45;2.10;99.90
42095;DHT22;27753;55.724;37.612;2023-02-01T09:34:11;2.10;99.90
42095;DHT22;27753;55.724;37.612;2023-02-01T09:36:37;2.10;99.90
42095;DHT22;27753;55.724;37.612;2023-02-01T09:39:05;1.90;99.90
42095;DHT22;27753;55.724;37.612;2023-02-01T09:41:52;1.90;99.90
42095;DHT22;27753;55.724;37.612;2023-02-01T09:45:04;1.90;99.90
42095;DHT22;27753;55.724;37.612;2023-02-01T09:47:32;1.90;99.90
42095;DHT22;27753;55.724;37.612;2023-02-01T09:50:15;1.90;99.90
42095;DHT22;27753;55.724;37.612;2023-02-01T09:55:24;1.70;99.90
42095;DHT22;27753;55.724;37.612;2023-02-01T09:58:00;1.70;99.90
42095;DHT22;27753;55.724;37.612;2023-02-01T10:00:30;1.70;99.90
42095;DHT22;27753;55.724;37.612;2023-02-01T10:02:59;1.70;99.90
42095;DHT22;27753;55.724;37.612;2023-02-01T10:14:28;1.80;99.90
42095;DHT22;27753;55.724;37.612;2023-02-01T10:22:01;1.60;99.90
42095;DHT22;27753;55.724;37.612;2023-02-01T10:24:40;1.50;99.90
42095;DHT22;27753;55.724;37.612;2023-02-01T10:29:45;1.40;99.90
42095;DHT22;27753;55.724;37.612;2023-02-01T10:32:20;1.30;99.90
42095;DHT22;27753;55.724;37.612;2023-02-01T10:37:37;1.40;99.90
42095;DHT22;27753;55.724;37.612;2023-02-01T10:40:16;1.40;99.90
42095;DHT22;27753;55.724;37.612;2023-02-01T10:42:44;1.20;99.90
42095;DHT22;27753;55.724;37.612;2023-02-01T10:45:15;1.10;99.90
42095;DHT22;27753;55.724;37.612;2023-02-01T10:47:42;1.10;99.90
42095;DHT22;27753;55.724;37.612;2023-02-01T10:50:51;1.10;99.90
42095;DHT22;27753;55.724;37.612;2023-02-01T10:55:55;0.90;99.90
42095;DHT22;27753;55.724;37.612;2023-02-01T10:58:30;0.90;99.90
42095;DHT22;27753;55.724;37.612;2023-02-01T11:01:01;0.80;99.90
42095;DHT22;27753;55.724;37.612;2023-02-01T11:03:39;0.80;99.90
42095;DHT22;27753;55.724;37.612;2023-02-01T11:06:45;0.80;99.90
42095;DHT22;27753;55.724;37.612;2023-02-01T11:09:19;0.80;99.90
42095;DHT22;27753;55.724;37.612;2023-02-01T11:19:26;1.00;99.90
42095;DHT22;27753;55.724;37.612;2023-02-01T11:21:57;1.00;99.90
42095;DHT22;27753;55.724;37.612;2023-02-01T11:24:28;1.00;99.90
42095;DHT22;27753;55.724;37.612;2023-02-01T11:26:56;1.10;99.90
42095;DHT22;27753;55.724;37.612;2023-02-01T11:29:23;1.10;99.90
42095;DHT22;27753;55.724;37.612;2023-02-01T11:31:57;1.10;99.90
42095;DHT22;27753;55.724;37.612;2023-02-01T11:34:28;1.20;99.90
42095;DHT22;27753;55.724;37.612;2023-02-01T11:36:59;1.00;99.90
42095;DHT22;27753;55.724;37.612;2023-02-01T11:39:35;0.90;99.90
42095;DHT22;27753;55.724;37.612;2023-02-01T11:44:37;1.10;99.90
42095;DHT22;27753;55.724;37.612;2023-02-01T11:47:20;1.10;99.90
42095;DHT22;27753;55.724;37.612;2023-02-01T11:49:47;1.10;99.90
42095;DHT22;27753;55.724;37.612;2023-02-01T11:54:58;0.90;99.90
42095;DHT22;27753;55.724;37.612;2023-02-01T12:05:59;1.10;99.90
42095;DHT22;27753;55.724;37.612;2023-02-01T12:14:25;1.30;99.90
42095;DHT22;27753;55.724;37.612;2023-02-01T12:31:35;1.40;99.90
42095;DHT22;27753;55.724;37.612;2023-02-01T12:34:15;1.40;99.90
42095;DHT22;27753;55.724;37.612;2023-02-01T12:40:04;1.40;99.90
42095;DHT22;27753;55.724;37.612;2023-02-01T12:42:40;1.40;99.90
42095;DHT22;27753;55.724;37.612;2023-02-01T12:47:54;1.40;99.90
42095;DHT22;27753;55.724;37.612;2023-02-01T12:50:26;1.30;99.90
42095;DHT22;27753;55.724;37.612;2023-02-01T12:52:58;1.20;99.90
42095;DHT22;27753;55.724;37.612;2023-02-01T12:55:38;1.20;99.90
42095;DHT22;27753;55.724;37.612;2023-02-01T12:58:12;1.20;99.90
42095;DHT22;27753;55.724;37.612;2023-02-01T13:00:51;1.20;99.90
42095;DHT22;27753;55.724;37.612;2023-02-01T13:06:33;1.40;99.90
42095;DHT22;27753;55.724;37.612;2023-02-01T13:09:19;1.50;99.90
42095;DHT22;27753;55.724;37.612;2023-02-01T13:11:49;1.60;99.90
42095;DHT22;27753;55.724;37.612;2023-02-01T13:14:56;1.60;99.90
42095;DHT22;27753;55.724;37.612;2023-02-01T13:17:26;1.60;99.90
42095;DHT22;27753;55.724;37.612;2023-02-01T13:20:02;1.70;99.90
42095;DHT22;27753;55.724;37.612;2023-02-01T13:22:38;1.60;99.90
42095;DHT22;27753;55.724;37.612;2023-02-01T13:25:22;1.60;99.90
42095;DHT22;27753;55.724;37.612;2023-02-01T13:27:53;1.70;99.90
42095;DHT22;27753;55.724;37.612;2023-02-01T13:30:24;1.70;99.90
42095;DHT22;27753;55.724;37.612;2023-02-01T13:33:18;1.70;99.90
42095;DHT22;27753;55.724;37.612;2023-02-01T13:41:29;1.60;99.90
42095;DHT22;27753;55.724;37.612;2023-02-01T13:44:15;1.50;99.70
42095;DHT22;27753;55.724;37.612;2023-02-01T13:46:44;1.40;99.40
42095;DHT22;27753;55.724;37.612;2023-02-01T13:49:29;1.30;99.40
42095;DHT22;27753;55.724;37.612;2023-02-01T13:51:57;1.40;99.50
42095;DHT22;27753;55.724;37.612;2023-02-01T13:54:31;1.30;99.70
42095;DHT22;27753;55.724;37.612;2023-02-01T13:56:59;1.30;99.50
42095;DHT22;27753;55.724;37.612;2023-02-01T14:21:23;1.40;99.20
42095;DHT22;27753;55.724;37.612;2023-02-01T14:26:46;1.40;99.10
42095;DHT22;27753;55.724;37.612;2023-02-01T14:29:42;1.40;99.20
42095;DHT22;27753;55.724;37.612;2023-02-01T14:32:53;1.50;99.20
42095;DHT22;27753;55.724;37.612;2023-02-01T14:35:04;1.40;99.20
42095;DHT22;27753;55.724;37.612;2023-02-01T14:37:34;1.50;99.30
42095;DHT22;27753;55.724;37.612;2023-02-01T14:40:14;1.40;99.20
42095;DHT22;27753;55.724;37.612;2023-02-01T14:58:47;1.40;99.30
42095;DHT22;27753;55.724;37.612;2023-02-01T15:06:29;1.30;99.50
42095;DHT22;27753;55.724;37.612;2023-02-01T15:09:29;1.30;99.10
42095;DHT22;27753;55.724;37.612;2023-02-01T15:14:42;1.40;99.30
42095;DHT22;27753;55.724;37.612;2023-02-01T15:22:30;1.30;99.10
42095;DHT22;27753;55.724;37.612;2023-02-01T15:24:57;1.40;99.00
42095;DHT22;27753;55.724;37.612;2023-02-01T15:27:23;1.30;99.20
42095;DHT22;27753;55.724;37.612;2023-02-01T15:29:49;1.30;99.10
42095;DHT22;27753;55.724;37.612;2023-02-01T15:32:29;1.30;99.00
42095;DHT22;27753;55.724;37.612;2023-02-01T15:34:59;1.30;99.20
42095;DHT22;27753;55.724;37.612;2023-02-01T15:37:28;1.30;99.10
42095;DHT22;27753;55.724;37.612;2023-02-01T15:40:20;1.30;99.10
42095;DHT22;27753;55.724;37.612;2023-02-01T15:42:56;1.20;99.20
42095;DHT22;27753;55.724;37.612;2023-02-01T15:45:27;1.20;99.30
42095;DHT22;27753;55.724;37.612;2023-02-01T15:47:55;1.20;99.40
42095;DHT22;27753;55.724;37.612;2023-02-01T15:50:22;1.20;99.50
42095;DHT22;27753;55.724;37.612;2023-02-01T15:52:51;1.30;99.50
42095;DHT22;27753;55.724;37.612;2023-02-01T15:55:54;1.20;99.30
42095;DHT22;27753;55.724;37.612;2023-02-01T15:58:22;1.20;99.40
42095;DHT22;27753;55.724;37.612;2023-02-01T16:00:50;1.20;99.40
42095;DHT22;27753;55.724;37.612;2023-02-01T16:05:57;1.10;99.20
42095;DHT22;27753;55.724;37.612;2023-02-01T16:08:26;1.00;99.10
42095;DHT22;27753;55.724;37.612;2023-02-01T16:10:54;1.00;99.30
42095;DHT22;27753;55.724;37.612;2023-02-01T16:13:24;0.90;99.30
42095;DHT22;27753;55.724;37.612;2023-02-01T16:15:50;0.90;99.40
42095;DHT22;27753;55.724;37.612;2023-02-01T16:18:16;1.00;99.50
42095;DHT22;27753;55.724;37.612;2023-02-01T16:20:43;1.00;99.50
42095;DHT22;27753;55.724;37.612;2023-02-01T16:23:09;1.00;99.50
42095;DHT22;27753;55.724;37.612;2023-02-01T16:25:37;1.00;99.40
42095;DHT22;27753;55.724;37.612;2023-02-01T16:28:03;1.00;99.40
42095;DHT22;27753;55.724;37.612;2023-02-01T16:30:31;1.00;99.40
42095;DHT22;27753;55.724;37.612;2023-02-01T16:32:58;0.90;99.50
42095;DHT22;27753;55.724;37.612;2023-02-01T16:35:25;1.00;99.70
42095;DHT22;27753;55.724;37.612;2023-02-01T16:37:52;1.00;99.80
42095;DHT22;27753;55.724;37.612;2023-02-01T16:40:20;0.90;99.60
42095;DHT22;27753;55.724;37.612;2023-02-01T16:42:50;1.00;99.50
42095;DHT22;27753;55.724;37.612;2023-02-01T16:45:16;0.90;99.70
42095;DHT22;27753;55.724;37.612;2023-02-01T16:47:49;0.90;99.80
42095;DHT22;27753;55.724;37.612;2023-02-01T16:50:29;0.90;99.90
42095;DHT22;27753;55.724;37.612;2023-02-01T16:52:57;0.90;99.80
42095;DHT22;27753;55.724;37.612;2023-02-01T16:55:23;0.90;99.90
42095;DHT22;27753;55.724;37.612;2023-02-01T16:57:49;0.90;99.70
42095;DHT22;27753;55.724;37.612;2023-02-01T17:00:18;0.90;99.60
42095;DHT22;27753;55.724;37.612;2023-02-01T17:02:45;0.90;99.00
42095;DHT22;27753;55.724;37.612;2023-02-01T17:05:11;0.90;99.20
42095;DHT22;27753;55.724;37.612;2023-02-01T17:07:38;1.00;99.30
42095;DHT22;27753;55.724;37.612;2023-02-01T17:10:10;1.00;99.20
42095;DHT22;27753;55.724;37.612;2023-02-01T17:12:46;1.10;99.30
42095;DHT22;27753;55.724;37.612;2023-02-01T17:15:15;1.10;99.40
42095;DHT22;27753;55.724;37.612;2023-02-01T17:17:41;1.20;99.10
42095;DHT22;27753;55.724;37.612;2023-02-01T17:20:19;1.20;99.10
42095;DHT22;27753;55.724;37.612;2023-02-01T17:22:46;1.20;99.20
42095;DHT22;27753;55.724;37.612;2023-02-01T17:25:19;1.30;99.20
42095;DHT22;27753;55.724;37.612;2023-02-01T17:27:47;1.30;99.20
42095;DHT22;27753;55.724;37.612;2023-02-01T17:30:14;1.30;99.50
42095;DHT22;27753;55.724;37.612;2023-02-01T17:32:40;1.30;99.00
42095;DHT22;27753;55.724;37.612;2023-02-01T17:35:20;1.30;99.10
42095;DHT22;27753;55.724;37.612;2023-02-01T17:37:46;1.30;99.10
42095;DHT22;27753;55.724;37.612;2023-02-01T17:40:13;1.30;99.00
42095;DHT22;27753;55.724;37.612;2023-02-01T17:42:39;1.20;99.00
42095;DHT22;27753;55.724;37.612;2023-02-01T17:45:23;1.20;99.00
42095;DHT22;27753;55.724;37.612;2023-02-01T17:47:51;1.20;98.90
42095;DHT22;27753;55.724;37.612;2023-02-01T17:50:17;1.20;98.90
42095;DHT22;27753;55.724;37.612;2023-02-01T17:52:43;1.20;99.00
42095;DHT22;27753;55.724;37.612;2023-02-01T17:55:19;1.20;99.00
42095;DHT22;27753;55.724;37.612;2023-02-01T17:57:48;1.20;98.90
42095;DHT22;27753;55.724;37.612;2023-02-01T18:00:15;1.20;98.80
42095;DHT22;27753;55.724;37.612;2023-02-01T18:02:41;1.20;98.90
42095;DHT22;27753;55.724;37.612;2023-02-01T18:05:21;1.30;98.80
42095;DHT22;27753;55.724;37.612;2023-02-01T18:07:48;1.20;98.50
42095;DHT22;27753;55.724;37.612;2023-02-01T18:10:15;1.10;98.40
42095;DHT22;27753;55.724;37.612;2023-02-01T18:12:41;1.10;98.50
42095;DHT22;27753;55.724;37.612;2023-02-01T18:15:21;1.10;98.50
42095;DHT22;27753;55.724;37.612;2023-02-01T18:17:50;1.10;98.60
42095;DHT22;27753;55.724;37.612;2023-02-01T18:20:18;1.10;98.50
42095;DHT22;27753;55.724;37.612;2023-02-01T18:22:45;1.10;98.40
42095;DHT22;27753;55.724;37.612;2023-02-01T18:25:25;1.10;98.40
42095;DHT22;27753;55.724;37.612;2023-02-01T18:27:52;1.10;98.40
42095;DHT22;27753;55.724;37.612;2023-02-01T18:30:22;1.10;98.40
42095;DHT22;27753;55.724;37.612;2023-02-01T18:32:49;1.20;98.50
42095;DHT22;27753;55.724;37.612;2023-02-01T18:35:23;1.10;98.20
42095;DHT22;27753;55.724;37.612;2023-02-01T18:37:51;1.10;98.40